Rimini, South Carolina
Current Conditions -  °F | °C
As of 11:26 AM on Saturday 20 Dec 2014 (Local Time) from KSSC Reporting Station
Light Rain Light Rain  
Wind Chill:   Ceiling: 700
Heat Index:   Visibility: 10mi
Dew Point:   Wind: 6mph
Humidity: 93%   Direction: 50°NE
Pressure: 30.23"   Gusts: NA
Location:  33.7445°N, 80.5249°W
Report Text: KSSC 201626Z AUTO 05005KT 10SM -RA BKN007 OVC022 08/07 A3023 RMK AO2 CIG 007V022 BKN V SCT $
Loading
Personal Weather Stations






























Interactive Weather Map New forecast layout! Learn more

10-Day Weather Forecast

Advertisements
Track Severe Weather on mobile